CDT,Max TemperatureF,Mean TemperatureF,Min TemperatureF,Max Dew PointF,MeanDew PointF,Min DewpointF,Max Humidity, Mean Humidity, Min Humidity, Max Sea Level PressureIn, Mean Sea Level PressureIn, Min Sea Level PressureIn, Max VisibilityMiles, Mean VisibilityMiles, Min VisibilityMiles, Max Wind SpeedMPH, Mean Wind SpeedMPH, Max Gust SpeedMPH,PrecipitationIn, CloudCover, Events, WindDirDegrees
2012-10-1,78,68,57,61,54,46,94,68,32,29.97,29.93,29.89,10,8,1,15,4,21,0.00,1,,326
2012-10-2,75,65,55,54,51,46,88,61,36,30.06,30.00,29.96,10,10,10,13,7,21,0.00,0,,332
2012-10-3,82,68,53,55,51,46,94,62,28,30.05,30.00,29.96,10,10,7,14,3,18,0.00,0,,159
2012-10-4,84,73,62,66,61,54,83,68,51,30.14,30.09,30.04,10,10,10,16,9,23,0.00,4,,162
2012-10-5,82,70,57,61,55,50,77,66,45,30.15,30.10,30.03,10,10,7,12,6,21,0.00,4,,331
2012-10-6,57,50,44,50,44,41,87,79,71,30.27,30.18,30.12,10,9,3,14,10,20,0.00,7,,17
2012-10-7,50,47,44,39,35,32,81,64,54,30.33,30.28,30.23,10,10,10,13,9,20,0.00,8,,21
2012-10-8,64,50,35,45,37,32,93,64,37,30.29,30.19,30.08,10,10,10,7,1,,0.00,0,,160
2012-10-9,86,68,51,61,54,45,88,67,35,30.07,29.98,29.88,10,10,10,20,9,29,0.00,2,,188
2012-10-10,77,68,59,63,61,57,94,81,61,30.18,30.11,30.01,10,8,4,13,3,,0.00,2,,25
2012-10-11,86,75,64,68,65,61,94,78,48,30.19,30.12,30.07,10,7,2,13,5,21,0.00,5,,155
2012-10-12,86,77,68,68,64,61,94,72,43,30.22,30.15,30.10,10,9,2,14,8,22,0.00,3,,164
2012-10-13,78,74,69,72,67,63,89,78,65,30.10,29.99,29.86,10,10,10,20,12,31,0.00,3,,177
2012-10-14,80,68,55,72,50,37,94,54,21,30.16,30.08,29.90,10,10,1,15,6,40,0.00,1,,338
2012-10-15,80,66,51,52,47,43,82,57,26,30.18,30.11,30.02,10,10,7,7,1,,0.00,0,,185
2012-10-16,77,66,55,63,54,50,88,67,44,30.02,29.86,29.73,10,10,10,18,5,25,0.00,0,,187
2012-10-17,86,74,62,64,53,43,88,56,22,29.84,29.72,29.67,10,10,7,18,10,28,0.00,1,,264
2012-10-18,73,62,51,43,31,21,52,33,15,30.07,29.99,29.85,10,10,10,9,6,16,0.00,0,,35
2012-10-19,78,61,44,41,34,27,81,43,17,30.10,30.02,29.94,10,10,4,9,2,,0.00,0,,282
2012-10-20,87,69,51,64,52,37,78,57,40,29.94,29.86,29.76,10,10,10,17,6,28,0.00,0,,182
2012-10-21,87,78,69,68,65,61,88,67,43,29.92,29.87,29.83,10,9,5,21,10,28,0.00,0,,183
2012-10-22,82,76,69,66,63,57,83,69,48,30.04,29.97,29.92,10,10,10,18,10,25,0.00,2,,165
2012-10-23,82,75,68,64,64,61,88,71,48,30.00,29.96,29.92,10,10,10,17,10,24,0.00,3,,181
2012-10-24,82,74,66,64,62,57,88,71,45,30.01,29.93,29.86,10,10,10,16,8,23,0.03,2,,171
2012-10-25,78,66,53,64,54,37,83,66,51,30.14,29.95,29.83,10,10,10,24,12,30,0.00,6,,248
2012-10-26,53,48,42,37,33,28,71,57,44,30.35,30.26,30.13,10,10,10,22,15,29,0.00,4,,356
2012-10-27,57,46,35,30,27,21,75,54,25,30.37,30.29,30.20,10,10,7,12,8,18,0.00,0,,351
2012-10-28,62,47,32,32,28,23,87,55,26,30.33,30.26,30.21,10,10,10,9,2,,0.00,0,,30
2012-10-29,68,50,33,34,29,27,87,51,21,30.33,30.24,30.15,10,10,10,8,1,,0.00,0,,164
2012-10-30,77,59,41,45,37,30,76,50,27,30.15,30.07,29.99,10,10,10,13,2,20,0.00,0,,224
2012-10-31,82,66,51,50,42,32,88,52,16,30.10,30.04,30.00,10,10,10,9,3,,0.00,0,,301